Woodbridge, United Kingdom
Current Conditions -  °F | °C
As of 9:50 PM on Thursday 23 Oct 2014 (Local Time) from EGUW Reporting Station
Overcast Overcast  
Wind Chill: 57°   Ceiling: 1000
Heat Index: 57°   Visibility: 6mi
Dew Point: 54°   Wind: 9mph
Humidity: 88%   Direction: 190°S
Pressure: 30.03"   Gusts: NA
Location:  52.09°N, 1.31°E
Report Text: EGUW 232050Z 19008KT 9999 OVC010 14/12 Q1017 GRN NOSIG
Loading
Personal Weather Stations






























Interactive Weather Map
Tropical Storm Tracking
New forecast layout! Learn more

10-Day Weather Forecast

Advertisements
Track Severe Weather on mobile